Time;durP1;ratioP1;P1;durP2;ratioP2;P2;SDS_P1;SDS_P2;PMS_P1;PMS_P2;Temp;Humidity;BMP_temperature;BMP_pressure;BME280_temperature;BME280_humidity;BME280_pressure;Samples;Min_cycle;Max_cycle;Signal;HPM_P1;HPM_P2
2022/03/04 00:01:29;;;;;;;;;33.00;30.40;;;;;;;;5211396;28;8793;-71
2022/03/04 00:04:00;;;;;;;;;41.20;32.60;;;;;;;;5247769;28;8785;-71
2022/03/04 00:06:31;;;;;;;;;28.00;26.80;;;;;;;;5231842;28;8824;-70
2022/03/04 00:09:03;;;;;;;;;39.80;36.00;;;;;;;;5249053;28;9543;-70
2022/03/04 00:11:34;;;;;;;;;39.00;37.40;;;;;;;;5231360;28;8809;-72
2022/03/04 00:14:05;;;;;;;;;51.00;44.60;;;;;;;;5231182;28;8800;-72
2022/03/04 00:16:36;;;;;;;;;41.60;35.40;;;;;;;;5214764;28;8792;-72
2022/03/04 00:19:09;;;;;;;;;53.00;47.25;;;;;;;;5230960;28;8805;-72
2022/03/04 00:21:41;;;;;;;;;44.00;41.40;;;;;;;;5230981;28;8808;-72
2022/03/04 00:24:13;;;;;;;;;30.80;28.40;;;;;;;;5248752;28;8791;-76
2022/03/04 00:26:45;;;;;;;;;40.00;38.20;;;;;;;;5248788;28;8820;-74
2022/03/04 00:29:17;;;;;;;;;39.00;35.00;;;;;;;;5231396;28;8792;-74
2022/03/04 00:31:48;;;;;;;;;25.40;21.20;;;;;;;;5230462;28;8962;-74
2022/03/04 00:34:20;;;;;;;;;44.80;40.80;;;;;;;;5231019;28;8792;-72
2022/03/04 00:36:51;;;;;;;;;51.40;44.80;;;;;;;;5248734;28;8777;-73
2022/03/04 00:39:23;;;;;;;;;53.40;43.60;;;;;;;;5214079;28;8761;-72
2022/03/04 00:41:54;;;;;;;;;43.40;41.60;;;;;;;;5231173;28;8792;-72
2022/03/04 00:44:25;;;;;;;;;35.60;35.20;;;;;;;;5248671;28;8765;-72
2022/03/04 00:46:56;;;;;;;;;53.80;47.20;;;;;;;;5214005;28;8869;-71
2022/03/04 00:49:28;;;;;;;;;46.40;37.40;;;;;;;;5248197;28;8791;-73
2022/03/04 00:51:59;;;;;;;;;40.40;38.20;;;;;;;;5214061;28;8792;-72
2022/03/04 00:54:30;;;;;;;;;46.20;41.60;;;;;;;;5230703;28;8789;-72
2022/03/04 00:57:01;;;;;;;;;48.00;42.80;;;;;;;;5231001;28;8780;-72
2022/03/04 00:59:51;;;;;;;;;64.40;51.60;;;;;;;;5230286;28;8869;-72
2022/03/04 01:02:22;;;;;;;;;77.50;62.50;;;;;;;;5248547;28;8789;-72
2022/03/04 01:04:53;;;;;;;;;67.00;54.00;;;;;;;;5230281;28;8923;-72
2022/03/04 01:07:24;;;;;;;;;67.75;56.25;;;;;;;;5230463;28;8792;-71
2022/03/04 01:09:56;;;;;;;;;51.00;47.20;;;;;;;;5213550;28;8815;-72
2022/03/04 01:12:27;;;;;;;;;60.60;49.00;;;;;;;;5213583;28;9669;-72
2022/03/04 01:15:17;;;;;;;;;41.80;41.00;;;;;;;;5247415;28;8781;-72
2022/03/04 01:17:49;;;;;;;;;40.60;38.60;;;;;;;;5213973;28;8846;-72
2022/03/04 01:20:20;;;;;;;;;46.80;42.80;;;;;;;;5247499;28;8858;-72
2022/03/04 01:22:51;;;;;;;;;42.40;38.20;;;;;;;;5213108;28;9494;-72
2022/03/04 01:25:22;;;;;;;;;47.60;43.40;;;;;;;;5212924;28;8815;-73
2022/03/04 01:27:54;;;;;;;;;39.60;31.80;;;;;;;;5229964;28;8900;-72
2022/03/04 01:30:25;;;;;;;;;58.20;45.80;;;;;;;;5213354;28;8813;-72
2022/03/04 01:32:56;;;;;;;;;43.20;34.20;;;;;;;;5247435;28;8773;-72
2022/03/04 01:35:27;;;;;;;;;44.20;38.40;;;;;;;;5229605;28;8789;-72
2022/03/04 01:37:59;;;;;;;;;33.20;28.60;;;;;;;;5229575;28;8780;-74
2022/03/04 01:40:30;;;;;;;;;37.60;36.20;;;;;;;;5229333;28;8793;-72
2022/03/04 01:43:02;;;;;;;;;28.40;26.60;;;;;;;;5247566;28;8803;-72
2022/03/04 01:45:33;;;;;;;;;35.80;33.20;;;;;;;;5212808;28;8781;-72
2022/03/04 01:48:23;;;;;;;;;33.00;31.00;;;;;;;;5216028;28;8788;-73
2022/03/04 01:50:54;;;;;;;;;35.60;32.40;;;;;;;;5246865;28;8820;-71
2022/03/04 01:53:25;;;;;;;;;43.40;40.80;;;;;;;;5229010;28;9538;-72
2022/03/04 01:55:57;;;;;;;;;31.20;23.60;;;;;;;;5229509;28;8904;-71
2022/03/04 01:58:28;;;;;;;;;19.40;16.00;;;;;;;;5212368;28;8776;-72
2022/03/04 02:01:01;;;;;;;;;38.40;36.20;;;;;;;;5229298;28;9568;-72
2022/03/04 02:03:51;;;;;;;;;46.60;42.80;;;;;;;;5215102;28;8911;-72
2022/03/04 02:06:22;;;;;;;;;44.20;37.80;;;;;;;;5196167;28;8895;-73
2022/03/04 02:08:54;;;;;;;;;39.00;32.60;;;;;;;;5228690;28;8789;-72
2022/03/04 02:11:25;;;;;;;;;62.80;48.60;;;;;;;;5246448;28;8982;-73
2022/03/04 02:13:56;;;;;;;;;39.60;37.20;;;;;;;;5212033;28;8789;-73
2022/03/04 02:16:36;;;;;;;;;39.60;37.00;;;;;;;;5227039;28;8813;-73
2022/03/04 02:19:07;;;;;;;;;32.20;31.00;;;;;;;;5245739;28;8835;-72
2022/03/04 02:21:41;;;;;;;;;37.50;32.25;;;;;;;;5229024;28;8804;-72
2022/03/04 02:24:13;;;;;;;;;35.20;32.00;;;;;;;;5224909;28;8829;-72
2022/03/04 02:26:44;;;;;;;;;19.00;18.00;;;;;;;;5227651;28;8785;-73
2022/03/04 02:29:34;;;;;;;;;36.00;36.00;;;;;;;;5231266;28;9269;-73
2022/03/04 02:32:06;;;;;;;;;40.20;37.40;;;;;;;;5228655;28;8921;-73
2022/03/04 02:34:37;;;;;;;;;38.40;37.00;;;;;;;;5245267;28;9487;-72
2022/03/04 02:37:08;;;;;;;;;38.25;36.25;;;;;;;;5195477;28;8801;-72
2022/03/04 02:39:57;;;;;;;;;39.00;35.20;;;;;;;;5246243;28;10173;-73
2022/03/04 02:42:28;;;;;;;;;45.00;42.00;;;;;;;;5246767;28;8930;-72
2022/03/04 02:45:00;;;;;;;;;29.60;28.80;;;;;;;;5227099;28;8831;-73
2022/03/04 02:47:31;;;;;;;;;43.80;39.80;;;;;;;;5246492;28;8777;-71
2022/03/04 02:50:02;;;;;;;;;19.80;18.20;;;;;;;;5228142;28;8815;-72
2022/03/04 02:52:33;;;;;;;;;27.40;24.80;;;;;;;;5228540;28;8773;-72
2022/03/04 02:55:10;;;;;;;;;37.25;36.00;;;;;;;;5228399;28;9519;-72
2022/03/04 02:57:42;;;;;;;;;36.80;35.00;;;;;;;;5211531;28;11503;-72
2022/03/04 03:00:14;;;;;;;;;34.40;33.60;;;;;;;;5244998;28;8799;-71
2022/03/04 03:02:45;;;;;;;;;67.75;53.75;;;;;;;;5245034;28;8803;-70
2022/03/04 03:05:16;;;;;;;;;58.00;51.33;;;;;;;;5228201;28;8792;-72
2022/03/04 03:07:47;;;;;;;;;42.75;39.00;;;;;;;;5228661;28;8797;-71
2022/03/04 03:10:18;;;;;;;;;70.33;57.00;;;;;;;;5211743;28;11524;-71
2022/03/04 03:12:49;;;;;;;;;39.50;36.25;;;;;;;;5227680;28;9565;-72
2022/03/04 03:15:38;;;;;;;;;49.00;44.00;;;;;;;;5214132;28;10317;-71
2022/03/04 03:18:09;;;;;;;;;34.75;32.25;;;;;;;;5211557;28;8859;-71
2022/03/04 03:20:40;;;;;;;;;35.60;33.80;;;;;;;;5245131;28;8921;-72
2022/03/04 03:23:11;;;;;;;;;29.50;29.50;;;;;;;;5210777;28;9639;-71
2022/03/04 03:25:42;;;;;;;;;34.25;33.50;;;;;;;;5227956;28;9793;-70
2022/03/04 03:28:13;;;;;;;;;38.60;36.60;;;;;;;;5211576;28;8778;-70
2022/03/04 03:30:44;;;;;;;;;33.75;30.00;;;;;;;;5246033;28;8778;-71
2022/03/04 03:33:14;;;;;;;;;30.50;29.25;;;;;;;;5211488;28;8897;-71
2022/03/04 03:35:45;;;;;;;;;49.00;42.40;;;;;;;;5244963;28;8811;-72
2022/03/04 03:38:17;;;;;;;;;45.00;40.80;;;;;;;;5229555;28;8800;-71
2022/03/04 03:40:49;;;;;;;;;53.75;48.25;;;;;;;;5231495;28;8817;-71
2022/03/04 03:43:20;;;;;;;;;27.40;27.00;;;;;;;;5231695;28;9288;-73
2022/03/04 03:45:51;;;;;;;;;49.60;46.00;;;;;;;;5215329;28;8773;-72
2022/03/04 03:48:22;;;;;;;;;38.00;34.80;;;;;;;;5231880;28;8815;-72
2022/03/04 03:50:53;;;;;;;;;59.40;46.60;;;;;;;;5231254;28;8919;-72
2022/03/04 03:53:24;;;;;;;;;56.00;48.80;;;;;;;;5215211;28;8777;-72
2022/03/04 03:56:13;;;;;;;;;46.40;39.00;;;;;;;;5231425;28;8780;-72
2022/03/04 03:58:44;;;;;;;;;40.80;37.40;;;;;;;;5231708;28;8799;-72
2022/03/04 04:01:15;;;;;;;;;48.20;44.60;;;;;;;;5249349;28;8800;-72
2022/03/04 04:03:47;;;;;;;;;51.25;42.00;;;;;;;;5232242;28;8773;-72
2022/03/04 04:06:18;;;;;;;;;52.60;41.40;;;;;;;;5214918;28;8939;-71
2022/03/04 04:08:49;;;;;;;;;53.25;47.00;;;;;;;;5230916;28;8899;-73
2022/03/04 04:11:20;;;;;;;;;66.00;54.33;;;;;;;;5248998;28;12274;-73
2022/03/04 04:13:51;;;;;;;;;48.00;43.00;;;;;;;;5248475;28;8864;-73
2022/03/04 04:16:22;;;;;;;;;24.40;23.80;;;;;;;;5231551;28;8785;-74
2022/03/04 04:18:53;;;;;;;;;51.50;45.00;;;;;;;;5215138;28;8777;-74
2022/03/04 04:21:24;;;;;;;;;47.60;40.40;;;;;;;;5249195;28;8780;-72
2022/03/04 04:23:55;;;;;;;;;51.40;46.80;;;;;;;;5230846;28;8784;-72
2022/03/04 04:26:26;;;;;;;;;47.80;40.20;;;;;;;;5230927;28;8780;-73
2022/03/04 04:28:58;;;;;;;;;52.75;45.00;;;;;;;;5230761;28;8781;-73
2022/03/04 04:31:30;;;;;;;;;60.80;51.80;;;;;;;;5230658;28;8801;-73
2022/03/04 04:34:02;;;;;;;;;54.60;44.20;;;;;;;;5230839;28;8801;-73
2022/03/04 04:36:34;;;;;;;;;65.20;49.40;;;;;;;;5247429;28;8780;-73
2022/03/04 04:39:05;;;;;;;;;60.80;50.60;;;;;;;;5231361;28;8769;-73
2022/03/04 04:41:36;;;;;;;;;59.80;48.60;;;;;;;;5247539;28;8784;-73
2022/03/04 04:44:07;;;;;;;;;71.00;53.00;;;;;;;;5230727;28;8792;-73
2022/03/04 04:46:37;;;;;;;;;57.50;48.75;;;;;;;;5230532;28;11479;-73
2022/03/04 04:49:09;;;;;;;;;51.20;48.00;;;;;;;;5212758;28;9530;-73
2022/03/04 04:51:40;;;;;;;;;46.00;42.80;;;;;;;;5247476;28;8836;-74
2022/03/04 04:54:11;;;;;;;;;54.20;45.20;;;;;;;;5248622;28;8801;-73
2022/03/04 04:56:42;;;;;;;;;56.50;50.25;;;;;;;;5230797;28;8835;-73
2022/03/04 04:59:14;;;;;;;;;44.00;40.75;;;;;;;;5247773;28;11503;-73
2022/03/04 05:01:45;;;;;;;;;49.40;41.20;;;;;;;;5213563;28;9268;-72
2022/03/04 05:04:16;;;;;;;;;56.00;45.00;;;;;;;;5230537;28;8769;-72
2022/03/04 05:06:47;;;;;;;;;62.80;47.20;;;;;;;;5213236;28;9744;-69
2022/03/04 05:09:36;;;;;;;;;51.00;47.40;;;;;;;;5228511;28;8805;-68
2022/03/04 05:12:07;;;;;;;;;54.00;47.00;;;;;;;;5247921;28;8792;-72
2022/03/04 05:14:57;;;;;;;;;57.20;47.00;;;;;;;;5248459;28;8811;-71
2022/03/04 05:17:28;;;;;;;;;59.00;48.40;;;;;;;;5210543;28;8801;-72
2022/03/04 05:19:59;;;;;;;;;49.20;46.80;;;;;;;;5211731;28;8813;-73
2022/03/04 05:22:30;;;;;;;;;53.50;48.00;;;;;;;;5211516;28;8800;-74
2022/03/04 05:25:01;;;;;;;;;47.00;41.50;;;;;;;;5211257;28;8950;-73
2022/03/04 05:27:31;;;;;;;;;41.75;39.25;;;;;;;;5227823;28;8777;-73
2022/03/04 05:30:03;;;;;;;;;60.25;47.75;;;;;;;;5211268;28;9468;-72
2022/03/04 05:32:34;;;;;;;;;66.00;52.00;;;;;;;;5228114;28;8866;-74
2022/03/04 05:35:05;;;;;;;;;52.60;46.40;;;;;;;;5210895;28;9417;-73
2022/03/04 05:37:55;;;;;;;;;42.80;39.20;;;;;;;;5228047;28;8804;-73
2022/03/04 05:40:26;;;;;;;;;38.50;38.50;;;;;;;;5245482;28;8804;-71
2022/03/04 05:42:57;;;;;;;;;90.33;70.33;;;;;;;;5245796;28;8811;-71
2022/03/04 05:45:28;;;;;;;;;79.50;62.00;;;;;;;;5210877;28;11527;-71
2022/03/04 05:47:59;;;;;;;;;74.60;55.40;;;;;;;;5211366;28;8829;-73
2022/03/04 05:50:30;;;;;;;;;58.75;52.50;;;;;;;;5245355;28;8833;-74
2022/03/04 05:53:00;;;;;;;;;66.75;56.00;;;;;;;;5229069;28;9682;-72
2022/03/04 05:55:31;;;;;;;;;84.67;66.00;;;;;;;;5246906;28;8792;-72
2022/03/04 05:58:03;;;;;;;;;76.20;63.20;;;;;;;;5213045;28;9503;-71
2022/03/04 06:00:34;;;;;;;;;76.50;60.50;;;;;;;;5247189;28;8831;-72
2022/03/04 06:03:06;;;;;;;;;72.60;59.20;;;;;;;;5212628;28;8788;-71
2022/03/04 06:05:36;;;;;;;;;63.00;54.00;;;;;;;;5246780;28;8803;-71
2022/03/04 06:08:07;;;;;;;;;56.50;48.50;;;;;;;;5229206;28;8784;-72
2022/03/04 06:10:38;;;;;;;;;77.50;61.00;;;;;;;;5228819;28;8837;-72
2022/03/04 06:13:09;;;;;;;;;73.00;60.50;;;;;;;;5229153;28;8769;-71
2022/03/04 06:15:40;;;;;;;;;61.80;49.00;;;;;;;;5229360;28;8795;-72
2022/03/04 06:18:11;;;;;;;;;69.80;58.20;;;;;;;;5212302;28;8785;-72
2022/03/04 06:20:43;;;;;;;;;75.40;58.20;;;;;;;;5212333;28;8865;-72
2022/03/04 06:23:14;;;;;;;;;60.40;52.80;;;;;;;;5228803;28;8780;-72
2022/03/04 06:25:45;;;;;;;;;63.60;50.20;;;;;;;;5228904;28;8777;-72
2022/03/04 06:28:16;;;;;;;;;38.75;38.50;;;;;;;;5246350;28;9017;-72
2022/03/04 06:30:47;;;;;;;;;43.25;39.50;;;;;;;;5228669;28;8877;-72
2022/03/04 06:33:32;;;;;;;;;56.50;48.50;;;;;;;;5246438;28;11472;-72
2022/03/04 06:36:05;;;;;;;;;58.00;48.80;;;;;;;;5228534;28;8782;-70
2022/03/04 06:38:38;;;;;;;;;47.20;43.20;;;;;;;;5212100;28;8769;-72
2022/03/04 06:41:10;;;;;;;;;52.00;46.40;;;;;;;;5228172;28;9604;-71
2022/03/04 06:43:42;;;;;;;;;67.40;55.00;;;;;;;;5246207;28;8781;-72
2022/03/04 06:46:13;;;;;;;;;67.60;56.20;;;;;;;;5246537;28;8784;-73
2022/03/04 06:48:43;;;;;;;;;80.75;63.75;;;;;;;;5246339;28;8761;-72
2022/03/04 06:51:14;;;;;;;;;103.50;77.00;;;;;;;;5211356;28;8824;-72
2022/03/04 06:54:05;;;;;;;;;76.40;59.80;;;;;;;;5246270;28;8777;-72
2022/03/04 06:56:36;;;;;;;;;68.00;56.20;;;;;;;;5228254;28;8785;-72
2022/03/04 06:59:07;;;;;;;;;60.25;53.75;;;;;;;;5228724;28;8776;-73
2022/03/04 07:01:39;;;;;;;;;64.00;53.75;;;;;;;;5245658;28;9582;-73
2022/03/04 07:04:10;;;;;;;;;43.20;42.80;;;;;;;;5228164;28;11563;-73
2022/03/04 07:06:41;;;;;;;;;48.75;46.75;;;;;;;;5246149;28;8828;-72
2022/03/04 07:09:12;;;;;;;;;60.25;48.75;;;;;;;;5228495;28;10926;-74
2022/03/04 07:11:42;;;;;;;;;56.50;48.00;;;;;;;;5245385;28;9688;-74
2022/03/04 07:14:14;;;;;;;;;61.00;52.60;;;;;;;;5231390;28;8793;-74
2022/03/04 07:16:45;;;;;;;;;55.00;48.00;;;;;;;;5250391;28;8822;-74
2022/03/04 07:19:34;;;;;;;;;46.40;42.00;;;;;;;;5235706;28;8795;-74
2022/03/04 07:22:06;;;;;;;;;46.75;44.75;;;;;;;;5215820;28;8797;-73
2022/03/04 07:24:37;;;;;;;;;53.60;46.80;;;;;;;;5232202;28;11511;-73
2022/03/04 07:27:09;;;;;;;;;53.20;47.00;;;;;;;;5232323;28;8793;-73
2022/03/04 07:29:40;;;;;;;;;59.50;48.00;;;;;;;;5265322;28;8783;-73
2022/03/04 07:32:12;;;;;;;;;83.60;65.00;;;;;;;;5232322;28;8796;-73
2022/03/04 07:34:43;;;;;;;;;60.00;52.40;;;;;;;;5250109;28;8776;-72
2022/03/04 07:37:14;;;;;;;;;67.50;56.50;;;;;;;;5215341;28;8837;-71
2022/03/04 07:39:44;;;;;;;;;62.00;50.25;;;;;;;;5248433;28;8781;-73
2022/03/04 07:42:15;;;;;;;;;65.75;54.50;;;;;;;;5231611;28;8781;-73
2022/03/04 07:44:46;;;;;;;;;56.40;47.80;;;;;;;;5249609;28;9381;-73
2022/03/04 07:47:17;;;;;;;;;53.60;47.80;;;;;;;;5265346;28;8793;-72
2022/03/04 07:49:48;;;;;;;;;66.50;52.75;;;;;;;;5231635;28;8820;-71
2022/03/04 07:52:19;;;;;;;;;63.75;52.25;;;;;;;;5214946;28;8809;-72
2022/03/04 07:54:50;;;;;;;;;59.50;49.00;;;;;;;;5231558;28;10437;-72
2022/03/04 07:57:21;;;;;;;;;63.00;48.50;;;;;;;;5231376;28;8815;-72
2022/03/04 07:59:52;;;;;;;;;46.25;42.75;;;;;;;;5249876;28;8796;-72
2022/03/04 08:02:23;;;;;;;;;54.25;46.50;;;;;;;;5214959;28;8811;-73
2022/03/04 08:04:54;;;;;;;;;60.40;49.60;;;;;;;;5227704;28;9824;-73
2022/03/04 08:07:25;;;;;;;;;49.50;44.75;;;;;;;;5208897;28;8802;-73
2022/03/04 08:09:56;;;;;;;;;59.50;49.75;;;;;;;;5209003;28;10602;-73
2022/03/04 08:12:26;;;;;;;;;61.75;49.50;;;;;;;;5229522;28;8816;-71
2022/03/04 08:14:57;;;;;;;;;64.00;50.50;;;;;;;;5247593;28;8781;-73
2022/03/04 08:17:30;;;;;;;;;57.50;50.50;;;;;;;;5245271;28;8816;-72
2022/03/04 08:20:01;;;;;;;;;51.20;46.80;;;;;;;;5209207;28;8905;-72
2022/03/04 08:22:32;;;;;;;;;86.00;70.60;;;;;;;;5228163;28;8782;-72
2022/03/04 08:25:06;;;;;;;;;47.50;45.75;;;;;;;;5212066;28;8830;-71
2022/03/04 08:27:38;;;;;;;;;48.40;42.00;;;;;;;;5231259;28;8756;-72
2022/03/04 08:30:10;;;;;;;;;48.60;44.00;;;;;;;;5248902;28;8833;-71
2022/03/04 08:32:41;;;;;;;;;54.60;44.40;;;;;;;;5248130;28;8769;-71
2022/03/04 08:35:11;;;;;;;;;50.25;45.00;;;;;;;;5231423;28;9475;-71
2022/03/04 08:37:42;;;;;;;;;47.75;44.00;;;;;;;;5248881;28;8773;-71
2022/03/04 08:40:13;;;;;;;;;47.00;43.25;;;;;;;;5248237;28;8800;-71
2022/03/04 08:42:44;;;;;;;;;41.25;39.50;;;;;;;;5248924;28;8799;-72
2022/03/04 08:45:16;;;;;;;;;50.40;45.40;;;;;;;;5248567;28;9630;-71
2022/03/04 08:47:47;;;;;;;;;55.75;46.75;;;;;;;;5249064;28;8880;-71
2022/03/04 08:50:36;;;;;;;;;65.40;52.40;;;;;;;;5248335;28;8823;-71
2022/03/04 08:53:07;;;;;;;;;51.75;45.75;;;;;;;;5248805;28;8761;-71
2022/03/04 08:55:41;;;;;;;;;56.80;47.00;;;;;;;;5230061;28;8793;-71
2022/03/04 08:58:12;;;;;;;;;58.80;49.80;;;;;;;;5213816;28;8816;-72
2022/03/04 09:00:43;;;;;;;;;65.50;51.25;;;;;;;;5248035;28;8785;-72
2022/03/04 09:03:15;;;;;;;;;57.00;48.75;;;;;;;;5248080;28;8789;-71
2022/03/04 09:06:04;;;;;;;;;49.00;42.00;;;;;;;;5248776;28;8821;-69
2022/03/04 09:08:53;;;;;;;;;42.00;39.60;;;;;;;;5248144;28;8796;-71
2022/03/04 09:11:24;;;;;;;;;63.00;49.50;;;;;;;;5230035;28;8820;-72
2022/03/04 09:13:56;;;;;;;;;49.20;43.20;;;;;;;;5247710;28;8800;-72
2022/03/04 09:16:26;;;;;;;;;61.60;50.60;;;;;;;;5247818;28;8776;-72
2022/03/04 09:18:57;;;;;;;;;55.00;46.75;;;;;;;;5247272;28;8824;-72
2022/03/04 09:21:28;;;;;;;;;56.80;49.00;;;;;;;;5247634;28;8800;-72
2022/03/04 09:23:59;;;;;;;;;58.75;50.25;;;;;;;;5247828;28;8816;-72
2022/03/04 09:26:49;;;;;;;;;58.60;47.00;;;;;;;;5247754;28;8777;-71
2022/03/04 09:29:20;;;;;;;;;67.00;53.20;;;;;;;;5247736;28;8792;-71
2022/03/04 09:31:51;;;;;;;;;60.00;49.80;;;;;;;;5247779;28;8839;-73
2022/03/04 09:34:21;;;;;;;;;60.00;48.75;;;;;;;;5246265;28;8831;-72
2022/03/04 09:36:52;;;;;;;;;60.25;46.75;;;;;;;;5229648;28;8769;-72
2022/03/04 09:39:23;;;;;;;;;55.25;45.00;;;;;;;;5247202;28;8801;-72
2022/03/04 09:41:54;;;;;;;;;61.50;46.75;;;;;;;;5247385;28;8800;-71
2022/03/04 09:44:25;;;;;;;;;64.50;48.25;;;;;;;;5247487;28;8780;-73
2022/03/04 09:46:58;;;;;;;;;62.25;52.00;;;;;;;;5229478;28;8789;-70
2022/03/04 09:49:33;;;;;;;;;52.60;46.40;;;;;;;;5213075;28;8788;-71
2022/03/04 09:52:04;;;;;;;;;54.60;45.80;;;;;;;;5229111;28;8821;-72
2022/03/04 09:54:35;;;;;;;;;48.00;43.60;;;;;;;;5213058;28;8788;-71
2022/03/04 09:57:06;;;;;;;;;62.00;50.20;;;;;;;;5229147;28;8886;-72
2022/03/04 09:59:37;;;;;;;;;56.60;46.00;;;;;;;;5229325;28;8788;-72
2022/03/04 10:02:10;;;;;;;;;55.75;47.25;;;;;;;;5246897;28;8799;-71
2022/03/04 10:04:42;;;;;;;;;46.40;43.00;;;;;;;;5229384;28;8846;-72
2022/03/04 10:07:15;;;;;;;;;38.80;38.60;;;;;;;;5229166;28;8789;-69
2022/03/04 10:09:47;;;;;;;;;43.80;40.60;;;;;;;;5228847;28;8843;-70
2022/03/04 10:12:19;;;;;;;;;56.20;46.60;;;;;;;;5246722;28;8796;-70
2022/03/04 10:15:07;;;;;;;;;51.00;45.60;;;;;;;;5229287;28;9527;-69
2022/03/04 10:17:38;;;;;;;;;44.60;40.40;;;;;;;;5229066;28;8793;-70
2022/03/04 10:20:12;;;;;;;;;41.60;39.80;;;;;;;;5228988;28;8787;-70
2022/03/04 10:22:45;;;;;;;;;64.80;52.00;;;;;;;;5246457;28;8783;-70
2022/03/04 10:25:34;;;;;;;;;43.20;40.60;;;;;;;;5247067;28;8907;-69
2022/03/04 10:28:08;;;;;;;;;44.00;40.25;;;;;;;;5246629;28;8906;-69
2022/03/04 10:30:42;;;;;;;;;41.60;39.20;;;;;;;;5228462;28;11527;-69
2022/03/04 10:33:16;;;;;;;;;37.00;37.00;;;;;;;;5246538;28;8788;-70
2022/03/04 10:36:04;;;;;;;;;41.80;40.00;;;;;;;;5246316;28;8842;-69
2022/03/04 10:38:36;;;;;;;;;33.20;30.20;;;;;;;;5246620;28;8773;-69
2022/03/04 10:41:20;;;;;;;;;34.80;32.20;;;;;;;;5228538;28;8776;-69
2022/03/04 10:43:51;;;;;;;;;33.20;32.40;;;;;;;;5229262;28;8810;-69
2022/03/04 10:46:23;;;;;;;;;39.40;38.40;;;;;;;;5228634;28;9480;-69
2022/03/04 10:49:22;;;;;;;;;36.20;34.80;;;;;;;;5245856;28;8781;-70
2022/03/04 10:52:04;;;;;;;;;43.60;41.20;;;;;;;;5246154;28;8844;-68
2022/03/04 10:54:35;;;;;;;;;61.80;49.40;;;;;;;;5246352;28;8769;-68
2022/03/04 10:57:06;;;;;;;;;76.00;61.75;;;;;;;;5245929;28;8792;-70
2022/03/04 10:59:53;;;;;;;;;59.80;42.40;;;;;;;;5246186;28;8784;-69
2022/03/04 11:02:44;;;;;;;;;69.20;56.80;;;;;;;;5246446;28;8800;-69
2022/03/04 11:05:34;;;;;;;;;67.20;54.00;;;;;;;;5244769;28;9503;-69
2022/03/04 11:08:23;;;;;;;;;49.40;41.60;;;;;;;;5230712;28;8781;-69
2022/03/04 11:10:57;;;;;;;;;67.00;49.60;;;;;;;;5228027;28;8813;-69
2022/03/04 11:13:33;;;;;;;;;44.40;42.00;;;;;;;;5245981;28;8765;-69
2022/03/04 11:16:06;;;;;;;;;46.80;44.20;;;;;;;;5245614;28;8793;-68
2022/03/04 11:18:37;;;;;;;;;60.60;49.20;;;;;;;;5245718;28;8796;-69
2022/03/04 11:21:08;;;;;;;;;67.20;53.20;;;;;;;;5245952;28;8911;-69
2022/03/04 11:23:39;;;;;;;;;59.00;50.25;;;;;;;;5228527;28;8985;-69
2022/03/04 11:26:19;;;;;;;;;58.50;45.00;;;;;;;;5228248;28;9668;-70
2022/03/04 11:28:51;;;;;;;;;53.40;46.40;;;;;;;;5245685;28;11598;-70
2022/03/04 11:31:23;;;;;;;;;49.60;44.60;;;;;;;;5211458;28;8801;-68
2022/03/04 11:33:54;;;;;;;;;55.60;45.40;;;;;;;;5245695;28;8801;-68
2022/03/04 11:36:25;;;;;;;;;53.60;45.20;;;;;;;;5245894;28;8776;-68
2022/03/04 11:38:58;;;;;;;;;54.00;45.20;;;;;;;;5228251;28;8765;-68
2022/03/04 11:41:31;;;;;;;;;73.00;58.80;;;;;;;;5227887;28;8800;-68
2022/03/04 11:44:04;;;;;;;;;60.80;50.00;;;;;;;;5245168;28;8866;-69
2022/03/04 11:46:42;;;;;;;;;55.60;47.20;;;;;;;;5245925;28;8753;-70
2022/03/04 11:49:24;;;;;;;;;53.20;46.00;;;;;;;;5245612;28;8824;-70
2022/03/04 11:54:43;;;;;;;;;64.80;51.20;;;;;;;;5245503;28;8966;-69
2022/03/04 11:57:36;;;;;;;;;61.80;52.60;;;;;;;;5214163;28;8877;-68
2022/03/04 12:00:11;;;;;;;;;47.00;42.80;;;;;;;;5230417;28;8773;-69
2022/03/04 12:02:47;;;;;;;;;66.40;50.20;;;;;;;;5215158;28;8773;-69
2022/03/04 12:05:30;;;;;;;;;58.60;48.80;;;;;;;;5231723;28;8943;-70
2022/03/04 12:08:02;;;;;;;;;51.40;44.20;;;;;;;;5248940;28;8765;-70
2022/03/04 12:10:37;;;;;;;;;50.80;43.00;;;;;;;;5231143;28;8928;-70
2022/03/04 12:13:10;;;;;;;;;65.40;51.00;;;;;;;;5214755;28;8777;-70
2022/03/04 12:15:44;;;;;;;;;58.60;48.00;;;;;;;;5231253;28;8781;-70
2022/03/04 12:18:16;;;;;;;;;43.20;40.60;;;;;;;;5249158;28;8899;-70
2022/03/04 12:20:47;;;;;;;;;41.40;37.80;;;;;;;;5248992;28;8805;-69
2022/03/04 12:23:39;;;;;;;;;33.00;31.00;;;;;;;;5231103;28;8833;-70
2022/03/04 12:26:11;;;;;;;;;33.80;31.00;;;;;;;;5220731;28;8811;-69
2022/03/04 12:28:46;;;;;;;;;45.60;41.00;;;;;;;;5214241;28;8785;-69
2022/03/04 12:31:20;;;;;;;;;37.00;34.60;;;;;;;;5231063;28;8939;-69
2022/03/04 12:33:54;;;;;;;;;39.60;37.60;;;;;;;;5230392;28;8792;-69
2022/03/04 12:36:43;;;;;;;;;54.60;47.20;;;;;;;;5233926;28;8781;-69
2022/03/04 12:39:18;;;;;;;;;55.60;47.00;;;;;;;;5231056;28;8776;-69
2022/03/04 12:41:53;;;;;;;;;40.80;38.20;;;;;;;;5224019;28;8783;-70
2022/03/04 12:44:26;;;;;;;;;56.40;44.60;;;;;;;;5210494;28;8782;-69
2022/03/04 12:46:57;;;;;;;;;33.20;33.20;;;;;;;;5227822;28;8779;-70
2022/03/04 12:49:29;;;;;;;;;33.50;30.25;;;;;;;;5210668;28;9490;-70
2022/03/04 12:52:00;;;;;;;;;35.60;25.40;;;;;;;;5234707;28;8895;-70
2022/03/04 12:54:31;;;;;;;;;21.50;21.50;;;;;;;;5213986;28;8772;-69
2022/03/04 12:57:04;;;;;;;;;25.50;22.50;;;;;;;;5248390;28;12188;-70
2022/03/04 12:59:48;;;;;;;;;40.00;37.00;;;;;;;;5248516;28;11573;-70
2022/03/04 13:02:19;;;;;;;;;41.40;38.80;;;;;;;;5229974;28;8842;-70
2022/03/04 13:04:59;;;;;;;;;31.25;31.00;;;;;;;;5248282;28;8785;-70
2022/03/04 13:07:31;;;;;;;;;52.20;44.40;;;;;;;;5230224;28;8950;-70
2022/03/04 13:10:05;;;;;;;;;57.00;44.60;;;;;;;;5229896;28;8789;-70
2022/03/04 13:12:36;;;;;;;;;33.60;32.40;;;;;;;;5229617;28;8919;-70
2022/03/04 13:15:08;;;;;;;;;36.60;32.80;;;;;;;;5247285;28;8806;-70
2022/03/04 13:17:39;;;;;;;;;39.80;36.80;;;;;;;;5248011;28;8758;-69
2022/03/04 13:20:10;;;;;;;;;40.00;38.25;;;;;;;;5229871;28;8821;-69
2022/03/04 13:22:41;;;;;;;;;48.00;42.00;;;;;;;;5247502;28;8873;-69
2022/03/04 13:25:12;;;;;;;;;39.00;29.25;;;;;;;;5230213;28;8772;-68
2022/03/04 13:27:48;;;;;;;;;59.80;48.40;;;;;;;;5247548;28;8784;-68
2022/03/04 13:30:19;;;;;;;;;62.20;49.60;;;;;;;;5247782;28;8797;-68
2022/03/04 13:32:54;;;;;;;;;58.75;48.50;;;;;;;;5247529;28;8839;-68
2022/03/04 13:35:25;;;;;;;;;56.60;47.00;;;;;;;;5247633;28;8773;-68
2022/03/04 13:38:21;;;;;;;;;60.40;46.40;;;;;;;;5247568;28;8769;-69
2022/03/04 13:41:20;;;;;;;;;46.20;43.40;;;;;;;;5215736;28;8792;-69
2022/03/04 13:44:04;;;;;;;;;53.40;47.20;;;;;;;;5212200;28;8800;-69
2022/03/04 13:47:06;;;;;;;;;78.80;62.00;;;;;;;;5247050;28;8888;-68
2022/03/04 13:49:41;;;;;;;;;49.80;45.80;;;;;;;;5212453;28;8885;-70
2022/03/04 13:52:12;;;;;;;;;62.00;51.60;;;;;;;;5212640;28;8804;-70
2022/03/04 13:54:47;;;;;;;;;82.20;65.40;;;;;;;;5229390;28;8854;-69
2022/03/04 13:57:27;;;;;;;;;74.20;59.80;;;;;;;;5229443;28;8795;-72
2022/03/04 14:00:10;;;;;;;;;82.60;66.60;;;;;;;;5247425;28;8780;-72
2022/03/04 14:02:50;;;;;;;;;82.80;64.80;;;;;;;;5229463;28;8812;-71
2022/03/04 14:05:26;;;;;;;;;79.80;64.20;;;;;;;;5212002;28;8792;-69
2022/03/04 14:08:03;;;;;;;;;68.60;56.00;;;;;;;;5209717;28;9492;-70
2022/03/04 14:10:35;;;;;;;;;73.80;59.40;;;;;;;;5235748;28;8854;-70
2022/03/04 14:13:08;;;;;;;;;64.80;53.80;;;;;;;;5247006;28;8881;-69
2022/03/04 14:15:40;;;;;;;;;70.60;55.40;;;;;;;;5212153;28;8847;-69
2022/03/04 14:18:13;;;;;;;;;56.60;44.80;;;;;;;;5262430;28;8776;-69
2022/03/04 14:20:45;;;;;;;;;34.60;30.60;;;;;;;;5228940;28;8946;-69
2022/03/04 14:23:16;;;;;;;;;54.60;45.20;;;;;;;;5246785;28;8796;-70
2022/03/04 14:25:47;;;;;;;;;55.40;48.00;;;;;;;;5210640;28;8927;-70
2022/03/04 14:28:37;;;;;;;;;56.60;48.60;;;;;;;;5211346;28;8851;-69
2022/03/04 14:31:10;;;;;;;;;31.60;30.40;;;;;;;;5206624;28;8941;-71
2022/03/04 14:33:41;;;;;;;;;34.80;33.00;;;;;;;;5238401;28;8919;-72
2022/03/04 14:36:12;;;;;;;;;50.50;42.75;;;;;;;;5245178;28;8938;-71
2022/03/04 14:38:43;;;;;;;;;62.40;52.80;;;;;;;;5211589;28;12149;-70
2022/03/04 14:41:14;;;;;;;;;50.25;45.75;;;;;;;;5222325;28;8804;-70
2022/03/04 14:43:45;;;;;;;;;55.00;46.75;;;;;;;;5226032;28;11503;-71
2022/03/04 14:46:15;;;;;;;;;54.50;46.75;;;;;;;;5240136;28;11517;-72
2022/03/04 14:48:46;;;;;;;;;49.75;44.00;;;;;;;;5208469;28;8800;-71
2022/03/04 14:51:17;;;;;;;;;41.75;38.75;;;;;;;;5215187;28;11552;-70
2022/03/04 14:53:48;;;;;;;;;49.20;41.00;;;;;;;;5240600;28;8854;-70
2022/03/04 14:56:21;;;;;;;;;39.00;35.20;;;;;;;;5243645;28;8872;-71
2022/03/04 14:58:52;;;;;;;;;41.40;39.00;;;;;;;;5224773;28;9590;-70
2022/03/04 15:01:24;;;;;;;;;56.80;47.80;;;;;;;;5243696;28;8935;-72
2022/03/04 15:03:55;;;;;;;;;59.00;51.00;;;;;;;;5244036;28;8831;-71
2022/03/04 15:06:28;;;;;;;;;62.40;51.00;;;;;;;;5243441;28;8816;-71
2022/03/04 15:08:59;;;;;;;;;59.40;48.40;;;;;;;;5225308;28;8843;-71